CSN3455 ZGSZ-ZUCK
Flight info
| Callsign | CSN3455 |
|---|---|
| Flight time | 1h 50m |
| Altitude | 38100 |
| Route | MIPAG W21 TEPID W24 OSNOV G586 QP B330 ELKAL W179 SUMUN W3 ASIPO W678 SEGDA |
| Aircraft | A359/H-SDE1FGHIJ1RWXYZ/LB1 |
Departure
| Time | 2026-05-06 12:27 |
|---|---|
| Airport | Shenzhen Bao'an International Airport (ZGSZ) |
Arrival
| Time | 2026-05-06 14:17 |
|---|---|
| Airport | Chongqing Jiangbei International Airport (ZUCK) |
| Time | Latitude | Longitude | Altitude | Speed | Heading |
|---|---|---|---|---|---|
| 2026-05-06 11:53 | 22.64073 | 113.79963 | 22 ft | 0 kts | 283° |
| 2026-05-06 12:15 | 22.64068 | 113.79985 | 25 ft | 4 kts | 278° |
| 2026-05-06 12:16 | 22.64066 | 113.80014 | 27 ft | 4 kts | 266° |
| 2026-05-06 12:16 | 22.64070 | 113.80041 | 26 ft | 4 kts | 245° |
| 2026-05-06 12:16 | 22.64081 | 113.80059 | 26 ft | 4 kts | 207° |
| 2026-05-06 12:16 | 22.64088 | 113.80063 | 26 ft | 4 kts | 190° |
| 2026-05-06 12:19 | 22.64066 | 113.80059 | 26 ft | 8 kts | 190° |
| 2026-05-06 12:20 | 22.64004 | 113.80053 | 22 ft | 12 kts | 182° |
| 2026-05-06 12:20 | 22.63912 | 113.80026 | 22 ft | 16 kts | 225° |
| 2026-05-06 12:20 | 22.63892 | 113.79990 | 22 ft | 1 kts | 243° |
| 2026-05-06 12:20 | 22.63882 | 113.79969 | 22 ft | 6 kts | 242° |
| 2026-05-06 12:21 | 22.63853 | 113.79910 | 22 ft | 12 kts | 242° |
| 2026-05-06 12:21 | 22.63809 | 113.79818 | 22 ft | 16 kts | 243° |
| 2026-05-06 12:21 | 22.63752 | 113.79694 | 22 ft | 20 kts | 251° |
| 2026-05-06 12:21 | 22.63833 | 113.79591 | 22 ft | 21 kts | 333° |
| 2026-05-06 12:22 | 22.63976 | 113.79512 | 22 ft | 25 kts | 333° |
| 2026-05-06 12:22 | 22.64121 | 113.79433 | 22 ft | 19 kts | 333° |
| 2026-05-06 12:22 | 22.64254 | 113.79360 | 23 ft | 23 kts | 333° |
| 2026-05-06 12:22 | 22.64385 | 113.79288 | 22 ft | 21 kts | 333° |
| 2026-05-06 12:23 | 22.64527 | 113.79211 | 23 ft | 25 kts | 333° |
| 2026-05-06 12:23 | 22.64690 | 113.79121 | 22 ft | 23 kts | 333° |
| 2026-05-06 12:23 | 22.64817 | 113.79051 | 22 ft | 23 kts | 333° |
| 2026-05-06 12:23 | 22.64972 | 113.78966 | 22 ft | 27 kts | 333° |
| 2026-05-06 12:24 | 22.65131 | 113.78879 | 22 ft | 14 kts | 333° |
| 2026-05-06 12:24 | 22.65223 | 113.78829 | 22 ft | 17 kts | 333° |
| 2026-05-06 12:24 | 22.65344 | 113.78763 | 22 ft | 22 kts | 333° |
| 2026-05-06 12:24 | 22.65448 | 113.78706 | 22 ft | 0 kts | 333° |
| 2026-05-06 12:25 | 22.65477 | 113.78685 | 23 ft | 10 kts | 316° |
| 2026-05-06 12:25 | 22.65479 | 113.78613 | 24 ft | 11 kts | 250° |
| 2026-05-06 12:25 | 22.65442 | 113.78537 | 22 ft | 12 kts | 236° |
| 2026-05-06 12:25 | 22.65373 | 113.78530 | 22 ft | 11 kts | 161° |
| 2026-05-06 12:26 | 22.65337 | 113.78547 | 22 ft | 0 kts | 153° |
| 2026-05-06 12:26 | 22.65334 | 113.78549 | 22 ft | 3 kts | 153° |
| 2026-05-06 12:26 | 22.65191 | 113.78629 | 22 ft | 57 kts | 153° |
| 2026-05-06 12:26 | 22.64617 | 113.78944 | 22 ft | 126 kts | 153° |
| 2026-05-06 12:27 | 22.63659 | 113.79471 | 105 ft | 175 kts | 154° |
| 2026-05-06 12:27 | 22.62586 | 113.80058 | 871 ft | 171 kts | 153° |
| 2026-05-06 12:27 | 22.61542 | 113.80670 | 1768 ft | 168 kts | 150° |
| 2026-05-06 12:27 | 22.60438 | 113.80985 | 2622 ft | 164 kts | 173° |
| 2026-05-06 12:28 | 22.59262 | 113.81071 | 3231 ft | 171 kts | 177° |
| 2026-05-06 12:28 | 22.58033 | 113.81127 | 3640 ft | 188 kts | 177° |
| 2026-05-06 12:28 | 22.56654 | 113.81247 | 3996 ft | 206 kts | 174° |
| 2026-05-06 12:28 | 22.55182 | 113.81439 | 4452 ft | 221 kts | 173° |
| 2026-05-06 12:29 | 22.53714 | 113.81661 | 4948 ft | 233 kts | 173° |
| 2026-05-06 12:29 | 22.52473 | 113.81856 | 5479 ft | 238 kts | 173° |
| 2026-05-06 12:29 | 22.50800 | 113.81852 | 6164 ft | 243 kts | 194° |
| 2026-05-06 12:29 | 22.49332 | 113.80989 | 6859 ft | 246 kts | 226° |
| 2026-05-06 12:30 | 22.48492 | 113.79400 | 7647 ft | 247 kts | 256° |
| 2026-05-06 12:30 | 22.48273 | 113.77553 | 8520 ft | 248 kts | 266° |
| 2026-05-06 12:30 | 22.48163 | 113.75681 | 9402 ft | 250 kts | 266° |
| 2026-05-06 12:30 | 22.48097 | 113.73800 | 10211 ft | 252 kts | 273° |
| 2026-05-06 12:31 | 22.48486 | 113.72073 | 10902 ft | 257 kts | 295° |
| 2026-05-06 12:31 | 22.49598 | 113.70551 | 11554 ft | 269 kts | 319° |
| 2026-05-06 12:31 | 22.51337 | 113.69638 | 11948 ft | 293 kts | 343° |
| 2026-05-06 12:31 | 22.53396 | 113.69179 | 12350 ft | 312 kts | 346° |
| 2026-05-06 12:32 | 22.55593 | 113.68729 | 12762 ft | 328 kts | 346° |
| 2026-05-06 12:32 | 22.57863 | 113.68275 | 13138 ft | 345 kts | 349° |
| 2026-05-06 12:32 | 22.60322 | 113.68300 | 13498 ft | 363 kts | 5° |
| 2026-05-06 12:32 | 22.62879 | 113.68767 | 13943 ft | 373 kts | 7° |
| 2026-05-06 12:33 | 22.65463 | 113.69266 | 14395 ft | 380 kts | 7° |
| 2026-05-06 12:33 | 22.68096 | 113.69761 | 14880 ft | 386 kts | 7° |
| 2026-05-06 12:33 | 22.70753 | 113.70253 | 15392 ft | 390 kts | 7° |
| 2026-05-06 12:33 | 22.73398 | 113.70738 | 15885 ft | 394 kts | 7° |
| 2026-05-06 12:34 | 22.76149 | 113.71242 | 16396 ft | 398 kts | 7° |
| 2026-05-06 12:34 | 22.78873 | 113.71739 | 16909 ft | 402 kts | 7° |
| 2026-05-06 12:34 | 22.81680 | 113.72251 | 17437 ft | 406 kts | 7° |
| 2026-05-06 12:34 | 22.84486 | 113.72762 | 17955 ft | 410 kts | 7° |
| 2026-05-06 12:35 | 22.87302 | 113.73275 | 18440 ft | 413 kts | 7° |
| 2026-05-06 12:35 | 22.90157 | 113.73796 | 18892 ft | 416 kts | 7° |
| 2026-05-06 12:35 | 22.92996 | 113.74173 | 19305 ft | 418 kts | 1° |
| 2026-05-06 12:35 | 22.95909 | 113.74314 | 19780 ft | 420 kts | 358° |
| 2026-05-06 12:36 | 22.98829 | 113.74335 | 20251 ft | 423 kts | 356° |
| 2026-05-06 12:36 | 23.01788 | 113.74305 | 20736 ft | 425 kts | 356° |
| 2026-05-06 12:36 | 23.04746 | 113.74267 | 21213 ft | 429 kts | 356° |
| 2026-05-06 12:36 | 23.07751 | 113.74239 | 21706 ft | 432 kts | 356° |
| 2026-05-06 12:37 | 23.10765 | 113.74225 | 22193 ft | 435 kts | 356° |
| 2026-05-06 12:37 | 23.13803 | 113.74224 | 22671 ft | 438 kts | 356° |
| 2026-05-06 12:37 | 23.16838 | 113.74230 | 23145 ft | 442 kts | 356° |
| 2026-05-06 12:37 | 23.19946 | 113.74239 | 23610 ft | 445 kts | 356° |
| 2026-05-06 12:38 | 23.23025 | 113.74081 | 24009 ft | 444 kts | 349° |
| 2026-05-06 12:38 | 23.26058 | 113.73427 | 24466 ft | 441 kts | 340° |
| 2026-05-06 12:38 | 23.28901 | 113.72225 | 24927 ft | 438 kts | 330° |
| 2026-05-06 12:38 | 23.31466 | 113.70492 | 25406 ft | 436 kts | 320° |
| 2026-05-06 12:39 | 23.33539 | 113.68443 | 25863 ft | 435 kts | 310° |
| 2026-05-06 12:39 | 23.35458 | 113.65897 | 26348 ft | 436 kts | 306° |
| 2026-05-06 12:39 | 23.37266 | 113.63242 | 26810 ft | 439 kts | 304° |
| 2026-05-06 12:39 | 23.39041 | 113.60523 | 27282 ft | 442 kts | 303° |
| 2026-05-06 12:40 | 23.40792 | 113.57813 | 27749 ft | 445 kts | 304° |
| 2026-05-06 12:40 | 23.42599 | 113.55025 | 28232 ft | 447 kts | 304° |
| 2026-05-06 12:40 | 23.44407 | 113.52256 | 28701 ft | 450 kts | 304° |
| 2026-05-06 12:40 | 23.46244 | 113.49465 | 29162 ft | 453 kts | 304° |
| 2026-05-06 12:41 | 23.48085 | 113.46681 | 29607 ft | 456 kts | 305° |
| 2026-05-06 12:41 | 23.49949 | 113.43868 | 30040 ft | 459 kts | 305° |
| 2026-05-06 12:41 | 23.51817 | 113.41049 | 30405 ft | 461 kts | 305° |
| 2026-05-06 12:41 | 23.53831 | 113.38309 | 30760 ft | 464 kts | 311° |
| 2026-05-06 12:42 | 23.56088 | 113.35780 | 31118 ft | 467 kts | 314° |
| 2026-05-06 12:42 | 23.58405 | 113.33288 | 31459 ft | 470 kts | 314° |
| 2026-05-06 12:42 | 23.60767 | 113.30791 | 31809 ft | 472 kts | 314° |
| 2026-05-06 12:42 | 23.63133 | 113.28306 | 32136 ft | 474 kts | 314° |
| 2026-05-06 12:43 | 23.65412 | 113.25699 | 32443 ft | 475 kts | 308° |
| 2026-05-06 12:43 | 23.67345 | 113.22779 | 32762 ft | 476 kts | 300° |
| 2026-05-06 12:43 | 23.68889 | 113.19589 | 33060 ft | 477 kts | 295° |
| 2026-05-06 12:43 | 23.70284 | 113.16312 | 33459 ft | 476 kts | 293° |
| 2026-05-06 12:44 | 23.71624 | 113.13026 | 33953 ft | 474 kts | 293° |
| 2026-05-06 12:44 | 23.72944 | 113.09735 | 34304 ft | 473 kts | 292° |
| 2026-05-06 12:44 | 23.74330 | 113.06488 | 34661 ft | 472 kts | 297° |
| 2026-05-06 12:44 | 23.76063 | 113.03442 | 35027 ft | 472 kts | 304° |
| 2026-05-06 12:45 | 23.78190 | 113.00695 | 35353 ft | 474 kts | 313° |
| 2026-05-06 12:45 | 23.80690 | 112.98341 | 35716 ft | 476 kts | 321° |
| 2026-05-06 12:45 | 23.86595 | 112.95035 | 36386 ft | 483 kts | 338° |
| 2026-05-06 12:46 | 23.89800 | 112.93902 | 36701 ft | 483 kts | 339° |
| 2026-05-06 12:46 | 23.92940 | 112.92870 | 37029 ft | 483 kts | 340° |
| 2026-05-06 12:46 | 23.96180 | 112.91837 | 37349 ft | 482 kts | 340° |
| 2026-05-06 12:46 | 23.99393 | 112.90805 | 37665 ft | 481 kts | 339° |
| 2026-05-06 12:47 | 24.02603 | 112.89760 | 37967 ft | 481 kts | 339° |
| 2026-05-06 12:47 | 24.08999 | 112.87642 | 38053 ft | 480 kts | 339° |
| 2026-05-06 12:48 | 24.15375 | 112.85514 | 38054 ft | 479 kts | 339° |
| 2026-05-06 12:48 | 24.21719 | 112.83408 | 38053 ft | 479 kts | 339° |
| 2026-05-06 12:49 | 24.28103 | 112.81280 | 38051 ft | 479 kts | 339° |
| 2026-05-06 12:49 | 24.34479 | 112.79155 | 38053 ft | 479 kts | 339° |
| 2026-05-06 12:50 | 24.40704 | 112.76647 | 38057 ft | 473 kts | 329° |
| 2026-05-06 12:50 | 24.45967 | 112.72474 | 38051 ft | 464 kts | 311° |
| 2026-05-06 12:51 | 24.49694 | 112.66826 | 38047 ft | 458 kts | 295° |
| 2026-05-06 12:51 | 24.51625 | 112.60177 | 38044 ft | 456 kts | 278° |
| 2026-05-06 12:52 | 24.51650 | 112.53229 | 38041 ft | 457 kts | 266° |
| 2026-05-06 12:52 | 24.51809 | 112.46268 | 38044 ft | 457 kts | 275° |
| 2026-05-06 12:53 | 24.52388 | 112.39322 | 38037 ft | 456 kts | 276° |
| 2026-05-06 12:53 | 24.53053 | 112.32392 | 38040 ft | 456 kts | 276° |
| 2026-05-06 12:54 | 24.53726 | 112.25473 | 38039 ft | 455 kts | 276° |
| 2026-05-06 12:54 | 24.54278 | 112.19728 | 38037 ft | 455 kts | 276° |
| 2026-05-06 12:55 | 24.54933 | 112.12816 | 38037 ft | 455 kts | 276° |
| 2026-05-06 12:55 | 24.55585 | 112.05893 | 38033 ft | 455 kts | 276° |
| 2026-05-06 12:56 | 24.56231 | 111.98982 | 38027 ft | 455 kts | 276° |
| 2026-05-06 12:56 | 24.56876 | 111.92054 | 38027 ft | 455 kts | 276° |
| 2026-05-06 12:57 | 24.57524 | 111.85139 | 38026 ft | 455 kts | 276° |
| 2026-05-06 12:57 | 24.58162 | 111.78225 | 38024 ft | 455 kts | 276° |
| 2026-05-06 12:58 | 24.58797 | 111.71319 | 38023 ft | 455 kts | 276° |
| 2026-05-06 12:58 | 24.59433 | 111.64385 | 38013 ft | 455 kts | 276° |
| 2026-05-06 12:59 | 24.60064 | 111.57467 | 38015 ft | 455 kts | 276° |
| 2026-05-06 12:59 | 24.60692 | 111.50544 | 38013 ft | 455 kts | 276° |
| 2026-05-06 13:00 | 24.61317 | 111.43621 | 38001 ft | 455 kts | 276° |
| 2026-05-06 13:00 | 24.61940 | 111.36702 | 38007 ft | 455 kts | 276° |
| 2026-05-06 13:01 | 24.62559 | 111.29775 | 38005 ft | 455 kts | 276° |
| 2026-05-06 13:01 | 24.63177 | 111.22854 | 37998 ft | 455 kts | 276° |
| 2026-05-06 13:02 | 24.63780 | 111.15944 | 37996 ft | 454 kts | 276° |
| 2026-05-06 13:02 | 24.64380 | 111.09037 | 37999 ft | 454 kts | 276° |
| 2026-05-06 13:03 | 24.64979 | 111.02135 | 37989 ft | 453 kts | 276° |
| 2026-05-06 13:03 | 24.65573 | 110.95236 | 37997 ft | 453 kts | 276° |
| 2026-05-06 13:04 | 24.66163 | 110.88381 | 37989 ft | 453 kts | 276° |
| 2026-05-06 13:04 | 24.67209 | 110.81539 | 37990 ft | 452 kts | 287° |
| 2026-05-06 13:05 | 24.69860 | 110.75334 | 37987 ft | 453 kts | 302° |
| 2026-05-06 13:05 | 24.74054 | 110.70127 | 37983 ft | 457 kts | 313° |
| 2026-05-06 13:06 | 24.78630 | 110.65330 | 37975 ft | 457 kts | 314° |
| 2026-05-06 13:06 | 24.83280 | 110.60507 | 37981 ft | 457 kts | 313° |
| 2026-05-06 13:07 | 24.87885 | 110.55683 | 37974 ft | 457 kts | 313° |
| 2026-05-06 13:07 | 24.92484 | 110.50832 | 37979 ft | 457 kts | 313° |
| 2026-05-06 13:08 | 24.97065 | 110.45989 | 37972 ft | 457 kts | 313° |
| 2026-05-06 13:08 | 25.01651 | 110.41136 | 37977 ft | 457 kts | 313° |
| 2026-05-06 13:09 | 25.06242 | 110.36288 | 37970 ft | 457 kts | 313° |
| 2026-05-06 13:09 | 25.10826 | 110.31445 | 37965 ft | 456 kts | 313° |
| 2026-05-06 13:10 | 25.15407 | 110.26600 | 37963 ft | 456 kts | 313° |
| 2026-05-06 13:10 | 25.19988 | 110.21749 | 37975 ft | 456 kts | 313° |
| 2026-05-06 13:11 | 25.24573 | 110.16915 | 37987 ft | 456 kts | 313° |
| 2026-05-06 13:11 | 25.29164 | 110.12082 | 37985 ft | 455 kts | 313° |
| 2026-05-06 13:12 | 25.33719 | 110.07281 | 37979 ft | 455 kts | 313° |
| 2026-05-06 13:12 | 25.38295 | 110.02452 | 37981 ft | 455 kts | 313° |
| 2026-05-06 13:13 | 25.42871 | 109.97615 | 37982 ft | 455 kts | 313° |
| 2026-05-06 13:13 | 25.47442 | 109.92778 | 37974 ft | 454 kts | 313° |
| 2026-05-06 13:14 | 25.52014 | 109.87938 | 37975 ft | 454 kts | 313° |
| 2026-05-06 13:14 | 25.56562 | 109.83117 | 37976 ft | 454 kts | 312° |
| 2026-05-06 13:15 | 25.61136 | 109.78261 | 37966 ft | 454 kts | 312° |
| 2026-05-06 13:15 | 25.65683 | 109.73429 | 37960 ft | 452 kts | 312° |
| 2026-05-06 13:16 | 25.70229 | 109.68594 | 37963 ft | 452 kts | 312° |
| 2026-05-06 13:16 | 25.74682 | 109.63690 | 37960 ft | 449 kts | 307° |
| 2026-05-06 13:17 | 25.78052 | 109.57953 | 37953 ft | 442 kts | 292° |
| 2026-05-06 13:17 | 25.80070 | 109.51535 | 37945 ft | 441 kts | 286° |
| 2026-05-06 13:18 | 25.81801 | 109.44991 | 37952 ft | 441 kts | 285° |
| 2026-05-06 13:18 | 25.83505 | 109.38450 | 37952 ft | 441 kts | 285° |
| 2026-05-06 13:19 | 25.85228 | 109.31924 | 37951 ft | 441 kts | 285° |
| 2026-05-06 13:19 | 25.86959 | 109.25404 | 37953 ft | 440 kts | 285° |
| 2026-05-06 13:20 | 25.88693 | 109.18872 | 37956 ft | 440 kts | 285° |
| 2026-05-06 13:20 | 25.90419 | 109.12355 | 37958 ft | 441 kts | 285° |
| 2026-05-06 13:21 | 25.92144 | 109.05825 | 37956 ft | 440 kts | 285° |
| 2026-05-06 13:21 | 25.93838 | 108.99444 | 37957 ft | 441 kts | 286° |
| 2026-05-06 13:22 | 25.95577 | 108.92911 | 37959 ft | 442 kts | 286° |
| 2026-05-06 13:22 | 25.97305 | 108.86399 | 37961 ft | 441 kts | 285° |
| 2026-05-06 13:23 | 25.99037 | 108.79859 | 37962 ft | 441 kts | 286° |
| 2026-05-06 13:23 | 26.00770 | 108.73309 | 37964 ft | 442 kts | 286° |
| 2026-05-06 13:24 | 26.02508 | 108.66751 | 37962 ft | 442 kts | 286° |
| 2026-05-06 13:24 | 26.04252 | 108.60196 | 37965 ft | 442 kts | 286° |
| 2026-05-06 13:25 | 26.05990 | 108.53649 | 37968 ft | 442 kts | 286° |
| 2026-05-06 13:25 | 26.07731 | 108.47074 | 37968 ft | 443 kts | 286° |
| 2026-05-06 13:26 | 26.09519 | 108.40526 | 37968 ft | 443 kts | 289° |
| 2026-05-06 13:26 | 26.12019 | 108.34267 | 37966 ft | 443 kts | 294° |
| 2026-05-06 13:27 | 26.14695 | 108.28073 | 37978 ft | 445 kts | 295° |
| 2026-05-06 13:27 | 26.17396 | 108.21869 | 37976 ft | 445 kts | 294° |
| 2026-05-06 13:28 | 26.20078 | 108.15675 | 37976 ft | 445 kts | 295° |
| 2026-05-06 13:28 | 26.22764 | 108.09451 | 37977 ft | 445 kts | 295° |
| 2026-05-06 13:29 | 26.25442 | 108.03232 | 37981 ft | 445 kts | 295° |
| 2026-05-06 13:29 | 26.28115 | 107.97013 | 37978 ft | 445 kts | 295° |
| 2026-05-06 13:30 | 26.30789 | 107.90783 | 37979 ft | 446 kts | 295° |
| 2026-05-06 13:30 | 26.33463 | 107.84548 | 37974 ft | 446 kts | 295° |
| 2026-05-06 13:31 | 26.36141 | 107.78294 | 37970 ft | 446 kts | 295° |
| 2026-05-06 13:31 | 26.38813 | 107.72043 | 37971 ft | 447 kts | 295° |
| 2026-05-06 13:32 | 26.41488 | 107.65776 | 37976 ft | 447 kts | 295° |
| 2026-05-06 13:32 | 26.44144 | 107.59545 | 37976 ft | 448 kts | 295° |
| 2026-05-06 13:33 | 26.46816 | 107.53266 | 37976 ft | 449 kts | 295° |
| 2026-05-06 13:33 | 26.49499 | 107.46958 | 37989 ft | 450 kts | 295° |
| 2026-05-06 13:34 | 26.52178 | 107.40627 | 37991 ft | 452 kts | 295° |
| 2026-05-06 13:34 | 26.54863 | 107.34270 | 37997 ft | 453 kts | 295° |
| 2026-05-06 13:35 | 26.57567 | 107.27879 | 37994 ft | 455 kts | 294° |
| 2026-05-06 13:35 | 26.60269 | 107.21487 | 38007 ft | 457 kts | 294° |
| 2026-05-06 13:36 | 26.62987 | 107.15056 | 38018 ft | 458 kts | 294° |
| 2026-05-06 13:36 | 26.65724 | 107.08638 | 38030 ft | 458 kts | 294° |
| 2026-05-06 13:37 | 26.68512 | 107.02209 | 38034 ft | 459 kts | 294° |
| 2026-05-06 13:37 | 26.71271 | 106.95773 | 38037 ft | 460 kts | 293° |
| 2026-05-06 13:38 | 26.74033 | 106.89331 | 38033 ft | 461 kts | 296° |
| 2026-05-06 13:38 | 26.77896 | 106.83577 | 38037 ft | 467 kts | 312° |
| 2026-05-06 13:39 | 26.83246 | 106.79372 | 38035 ft | 477 kts | 330° |
| 2026-05-06 13:39 | 26.89625 | 106.77306 | 38036 ft | 490 kts | 348° |
| 2026-05-06 13:40 | 26.96533 | 106.76974 | 38035 ft | 493 kts | 352° |
| 2026-05-06 13:40 | 27.03399 | 106.76686 | 38036 ft | 494 kts | 352° |
| 2026-05-06 13:41 | 27.10225 | 106.76384 | 38031 ft | 494 kts | 352° |
| 2026-05-06 13:41 | 27.17082 | 106.76040 | 38029 ft | 493 kts | 352° |
| 2026-05-06 13:42 | 27.23939 | 106.75682 | 38025 ft | 493 kts | 352° |
| 2026-05-06 13:42 | 27.30796 | 106.75322 | 38024 ft | 493 kts | 351° |
| 2026-05-06 13:43 | 27.36533 | 106.75021 | 38020 ft | 493 kts | 351° |
| 2026-05-06 13:43 | 27.43406 | 106.74851 | 38014 ft | 495 kts | 354° |
| 2026-05-06 13:44 | 27.50300 | 106.74934 | 38011 ft | 495 kts | 355° |
| 2026-05-06 13:44 | 27.57185 | 106.75003 | 38014 ft | 495 kts | 354° |
| 2026-05-06 13:45 | 27.64079 | 106.75024 | 38012 ft | 494 kts | 354° |
| 2026-05-06 13:45 | 27.74391 | 106.75027 | 38012 ft | 494 kts | 354° |
| 2026-05-06 13:46 | 27.81228 | 106.75030 | 38013 ft | 494 kts | 354° |
| 2026-05-06 13:46 | 27.88139 | 106.75049 | 38010 ft | 494 kts | 354° |
| 2026-05-06 13:47 | 27.95010 | 106.75056 | 38013 ft | 494 kts | 353° |
| 2026-05-06 13:47 | 28.01891 | 106.75064 | 38018 ft | 494 kts | 353° |
| 2026-05-06 13:48 | 28.08769 | 106.75061 | 38017 ft | 494 kts | 353° |
| 2026-05-06 13:48 | 28.15637 | 106.75057 | 38017 ft | 494 kts | 353° |
| 2026-05-06 13:49 | 28.22523 | 106.75063 | 38020 ft | 494 kts | 353° |
| 2026-05-06 13:49 | 28.29401 | 106.75077 | 38022 ft | 495 kts | 354° |
| 2026-05-06 13:50 | 28.36138 | 106.74445 | 38024 ft | 488 kts | 346° |
| 2026-05-06 13:50 | 28.42889 | 106.73468 | 38027 ft | 488 kts | 346° |
| 2026-05-06 13:51 | 28.49623 | 106.72480 | 38025 ft | 488 kts | 346° |
| 2026-05-06 13:51 | 28.52928 | 106.71999 | 37636 ft | 471 kts | 346° |
| 2026-05-06 13:51 | 28.56147 | 106.71530 | 36588 ft | 463 kts | 346° |
| 2026-05-06 13:52 | 28.59349 | 106.71051 | 35127 ft | 467 kts | 346° |
| 2026-05-06 13:52 | 28.62560 | 106.70571 | 34305 ft | 465 kts | 346° |
| 2026-05-06 13:52 | 28.65787 | 106.70089 | 33518 ft | 468 kts | 346° |
| 2026-05-06 13:52 | 28.69002 | 106.69609 | 32710 ft | 470 kts | 346° |
| 2026-05-06 13:53 | 28.72264 | 106.69239 | 31878 ft | 476 kts | 352° |
| 2026-05-06 13:53 | 28.75598 | 106.69187 | 31017 ft | 480 kts | 354° |
| 2026-05-06 13:53 | 28.78932 | 106.69193 | 30188 ft | 481 kts | 355° |
| 2026-05-06 13:53 | 28.82268 | 106.69197 | 29482 ft | 478 kts | 355° |
| 2026-05-06 13:54 | 28.85577 | 106.69198 | 28851 ft | 473 kts | 355° |
| 2026-05-06 13:54 | 28.88882 | 106.69195 | 28227 ft | 475 kts | 355° |
| 2026-05-06 13:54 | 28.92172 | 106.69191 | 27599 ft | 473 kts | 355° |
| 2026-05-06 13:54 | 28.95453 | 106.69189 | 26967 ft | 470 kts | 355° |
| 2026-05-06 13:55 | 28.98713 | 106.69185 | 26343 ft | 467 kts | 355° |
| 2026-05-06 13:55 | 29.01947 | 106.69181 | 25733 ft | 464 kts | 355° |
| 2026-05-06 13:55 | 29.05162 | 106.69184 | 25130 ft | 461 kts | 356° |
| 2026-05-06 13:55 | 29.08350 | 106.69183 | 24525 ft | 458 kts | 356° |
| 2026-05-06 13:56 | 29.11514 | 106.69179 | 23925 ft | 456 kts | 356° |
| 2026-05-06 13:56 | 29.14681 | 106.69484 | 23282 ft | 459 kts | 8° |
| 2026-05-06 13:56 | 29.17763 | 106.70430 | 22625 ft | 458 kts | 14° |
| 2026-05-06 13:56 | 29.20798 | 106.71495 | 22002 ft | 453 kts | 14° |
| 2026-05-06 13:57 | 29.23796 | 106.72544 | 21387 ft | 449 kts | 14° |
| 2026-05-06 13:57 | 29.26778 | 106.73579 | 20785 ft | 444 kts | 14° |
| 2026-05-06 13:57 | 29.29722 | 106.74599 | 20190 ft | 440 kts | 14° |
| 2026-05-06 13:57 | 29.32589 | 106.75591 | 19608 ft | 436 kts | 14° |
| 2026-05-06 13:58 | 29.35521 | 106.76605 | 19018 ft | 432 kts | 14° |
| 2026-05-06 13:58 | 29.38391 | 106.77596 | 18439 ft | 429 kts | 14° |
| 2026-05-06 13:58 | 29.41239 | 106.78580 | 17820 ft | 425 kts | 14° |
| 2026-05-06 13:58 | 29.44053 | 106.79562 | 17226 ft | 420 kts | 15° |
| 2026-05-06 13:59 | 29.46830 | 106.80522 | 16661 ft | 415 kts | 15° |
| 2026-05-06 13:59 | 29.49542 | 106.81458 | 16224 ft | 407 kts | 15° |
| 2026-05-06 13:59 | 29.52194 | 106.82377 | 16064 ft | 391 kts | 15° |
| 2026-05-06 13:59 | 29.54750 | 106.83263 | 15943 ft | 377 kts | 15° |
| 2026-05-06 14:00 | 29.57215 | 106.84119 | 15809 ft | 363 kts | 15° |
| 2026-05-06 14:00 | 29.59585 | 106.84944 | 15657 ft | 350 kts | 15° |
| 2026-05-06 14:00 | 29.61879 | 106.85747 | 15508 ft | 338 kts | 15° |
| 2026-05-06 14:00 | 29.64095 | 106.86509 | 15363 ft | 327 kts | 14° |
| 2026-05-06 14:01 | 29.66291 | 106.86859 | 15213 ft | 312 kts | 353° |
| 2026-05-06 14:01 | 29.68283 | 106.86129 | 15071 ft | 296 kts | 326° |
| 2026-05-06 14:01 | 29.69739 | 106.84534 | 14810 ft | 288 kts | 301° |
| 2026-05-06 14:01 | 29.70449 | 106.82419 | 14526 ft | 283 kts | 278° |
| 2026-05-06 14:02 | 29.70736 | 106.80195 | 14254 ft | 278 kts | 279° |
| 2026-05-06 14:02 | 29.70759 | 106.78001 | 13999 ft | 274 kts | 259° |
| 2026-05-06 14:02 | 29.70018 | 106.76010 | 13732 ft | 271 kts | 234° |
| 2026-05-06 14:02 | 29.68610 | 106.74595 | 13458 ft | 270 kts | 209° |
| 2026-05-06 14:03 | 29.66823 | 106.74007 | 13208 ft | 269 kts | 185° |
| 2026-05-06 14:03 | 29.64985 | 106.74323 | 12959 ft | 269 kts | 161° |
| 2026-05-06 14:03 | 29.63191 | 106.74921 | 12613 ft | 268 kts | 174° |
| 2026-05-06 14:03 | 29.61364 | 106.74788 | 12299 ft | 262 kts | 197° |
| 2026-05-06 14:04 | 29.59611 | 106.74213 | 11978 ft | 261 kts | 199° |
| 2026-05-06 14:04 | 29.57873 | 106.73599 | 11669 ft | 261 kts | 199° |
| 2026-05-06 14:04 | 29.56142 | 106.72990 | 11355 ft | 261 kts | 199° |
| 2026-05-06 14:04 | 29.54408 | 106.72384 | 11055 ft | 260 kts | 199° |
| 2026-05-06 14:05 | 29.52676 | 106.71783 | 10747 ft | 260 kts | 199° |
| 2026-05-06 14:05 | 29.50946 | 106.71189 | 10438 ft | 260 kts | 199° |
| 2026-05-06 14:05 | 29.49224 | 106.70592 | 10192 ft | 257 kts | 199° |
| 2026-05-06 14:05 | 29.47517 | 106.69999 | 9910 ft | 256 kts | 199° |
| 2026-05-06 14:06 | 29.45944 | 106.69451 | 9665 ft | 268 kts | 199° |
| 2026-05-06 14:06 | 29.44223 | 106.68853 | 9584 ft | 274 kts | 199° |
| 2026-05-06 14:06 | 29.42411 | 106.68231 | 9354 ft | 268 kts | 199° |
| 2026-05-06 14:06 | 29.40661 | 106.67630 | 9197 ft | 259 kts | 199° |
| 2026-05-06 14:07 | 29.38952 | 106.67041 | 9019 ft | 252 kts | 199° |
| 2026-05-06 14:07 | 29.37390 | 106.66215 | 8721 ft | 246 kts | 220° |
| 2026-05-06 14:07 | 29.36460 | 106.64729 | 8435 ft | 237 kts | 254° |
| 2026-05-06 14:07 | 29.36370 | 106.62889 | 8130 ft | 232 kts | 283° |
| 2026-05-06 14:08 | 29.36803 | 106.61145 | 7866 ft | 229 kts | 289° |
| 2026-05-06 14:08 | 29.37280 | 106.59441 | 7794 ft | 216 kts | 288° |
| 2026-05-06 14:08 | 29.37728 | 106.57834 | 7619 ft | 206 kts | 289° |
| 2026-05-06 14:08 | 29.38461 | 106.56481 | 7377 ft | 199 kts | 322° |
| 2026-05-06 14:09 | 29.39734 | 106.56014 | 7175 ft | 192 kts | 359° |
| 2026-05-06 14:09 | 29.41049 | 106.56158 | 6968 ft | 188 kts | 10° |
| 2026-05-06 14:09 | 29.42308 | 106.56495 | 6824 ft | 188 kts | 14° |
| 2026-05-06 14:09 | 29.43565 | 106.56890 | 6657 ft | 187 kts | 15° |
| 2026-05-06 14:10 | 29.44831 | 106.57306 | 6472 ft | 187 kts | 16° |
| 2026-05-06 14:10 | 29.46050 | 106.57729 | 6317 ft | 182 kts | 16° |
| 2026-05-06 14:10 | 29.47225 | 106.58136 | 6179 ft | 172 kts | 17° |
| 2026-05-06 14:10 | 29.48332 | 106.58513 | 6005 ft | 159 kts | 16° |
| 2026-05-06 14:11 | 29.49337 | 106.58849 | 5832 ft | 148 kts | 17° |
| 2026-05-06 14:11 | 29.50307 | 106.59185 | 5648 ft | 145 kts | 18° |
| 2026-05-06 14:11 | 29.51271 | 106.59523 | 5474 ft | 145 kts | 18° |
| 2026-05-06 14:11 | 29.52244 | 106.59862 | 5283 ft | 146 kts | 18° |
| 2026-05-06 14:12 | 29.53214 | 106.60200 | 5090 ft | 146 kts | 18° |
| 2026-05-06 14:12 | 29.54190 | 106.60539 | 4904 ft | 146 kts | 18° |
| 2026-05-06 14:12 | 29.55155 | 106.60876 | 4722 ft | 145 kts | 19° |
| 2026-05-06 14:12 | 29.56112 | 106.61210 | 4530 ft | 144 kts | 19° |
| 2026-05-06 14:13 | 29.57077 | 106.61546 | 4321 ft | 144 kts | 19° |
| 2026-05-06 14:13 | 29.58032 | 106.61879 | 4152 ft | 143 kts | 19° |
| 2026-05-06 14:13 | 29.58979 | 106.62210 | 3955 ft | 142 kts | 19° |
| 2026-05-06 14:13 | 29.59921 | 106.62539 | 3792 ft | 142 kts | 18° |
| 2026-05-06 14:14 | 29.60865 | 106.62865 | 3558 ft | 141 kts | 18° |
| 2026-05-06 14:14 | 29.61800 | 106.63187 | 3353 ft | 140 kts | 16° |
| 2026-05-06 14:14 | 29.62728 | 106.63511 | 3107 ft | 138 kts | 17° |
| 2026-05-06 14:14 | 29.63643 | 106.63832 | 2973 ft | 137 kts | 18° |
| 2026-05-06 14:15 | 29.64556 | 106.64152 | 2810 ft | 137 kts | 17° |
| 2026-05-06 14:15 | 29.65471 | 106.64485 | 2647 ft | 138 kts | 17° |
| 2026-05-06 14:15 | 29.66381 | 106.64811 | 2464 ft | 136 kts | 17° |
| 2026-05-06 14:15 | 29.67288 | 106.65120 | 2326 ft | 135 kts | 16° |
| 2026-05-06 14:16 | 29.68190 | 106.65435 | 2165 ft | 136 kts | 18° |
| 2026-05-06 14:16 | 29.69093 | 106.65769 | 1953 ft | 135 kts | 15° |
| 2026-05-06 14:16 | 29.69990 | 106.66079 | 1782 ft | 135 kts | 15° |
| 2026-05-06 14:16 | 29.70880 | 106.66397 | 1624 ft | 136 kts | 16° |
| 2026-05-06 14:17 | 29.71790 | 106.66695 | 1431 ft | 135 kts | 15° |
| 2026-05-06 14:17 | 29.72683 | 106.66996 | 1347 ft | 129 kts | 16° |
| 2026-05-06 14:17 | 29.73375 | 106.67232 | 1336 ft | 66 kts | 17° |
| 2026-05-06 14:17 | 29.73687 | 106.67339 | 1335 ft | 42 kts | 17° |
| 2026-05-06 14:18 | 29.73892 | 106.67385 | 1332 ft | 8 kts | 355° |
| 2026-05-06 14:18 | 29.73968 | 106.67377 | 1330 ft | 14 kts | 351° |
| 2026-05-06 14:18 | 29.73984 | 106.67374 | 1330 ft | 4 kts | 351° |
| 2026-05-06 14:18 | 29.74016 | 106.67368 | 1329 ft | 0 kts | 351° |
| 2026-05-06 14:19 | 29.74029 | 106.67366 | 1329 ft | 0 kts | 350° |
| 2026-05-06 14:20 | 29.74035 | 106.67365 | 1329 ft | 4 kts | 349° |
| 2026-05-06 14:21 | 29.74088 | 106.67353 | 1328 ft | 13 kts | 349° |
| 2026-05-06 14:21 | 29.74195 | 106.67331 | 1326 ft | 18 kts | 353° |
| 2026-05-06 14:21 | 29.74272 | 106.67330 | 1324 ft | 0 kts | 340° |
| 2026-05-06 14:21 | 29.74284 | 106.67316 | 1323 ft | 6 kts | 309° |
| 2026-05-06 14:22 | 29.74302 | 106.67236 | 1321 ft | 16 kts | 279° |
| 2026-05-06 14:22 | 29.74333 | 106.67094 | 1321 ft | 22 kts | 288° |
| 2026-05-06 14:22 | 29.74355 | 106.66976 | 1322 ft | 13 kts | 251° |
| 2026-05-06 14:22 | 29.74260 | 106.66912 | 1323 ft | 17 kts | 196° |
| 2026-05-06 14:23 | 29.74123 | 106.66866 | 1324 ft | 24 kts | 198° |
| 2026-05-06 14:23 | 29.73973 | 106.66813 | 1325 ft | 22 kts | 196° |
| 2026-05-06 14:23 | 29.73801 | 106.66754 | 1326 ft | 29 kts | 197° |
| 2026-05-06 14:23 | 29.73654 | 106.66704 | 1327 ft | 8 kts | 197° |
| 2026-05-06 14:24 | 29.73618 | 106.66688 | 1328 ft | 11 kts | 209° |
| 2026-05-06 14:24 | 29.73601 | 106.66618 | 1329 ft | 9 kts | 280° |
| 2026-05-06 14:24 | 29.73618 | 106.66550 | 1330 ft | 10 kts | 287° |
| 2026-05-06 14:24 | 29.73643 | 106.66457 | 1332 ft | 14 kts | 287° |
| 2026-05-06 14:25 | 29.73674 | 106.66344 | 1335 ft | 16 kts | 287° |
| 2026-05-06 14:25 | 29.73685 | 106.66253 | 1337 ft | 9 kts | 244° |
| 2026-05-06 14:25 | 29.73618 | 106.66213 | 1338 ft | 14 kts | 195° |
| 2026-05-06 14:25 | 29.73550 | 106.66237 | 1338 ft | 8 kts | 161° |
| 2026-05-06 14:26 | 29.73503 | 106.66236 | 1338 ft | 0 kts | 183° |
| 2026-05-06 14:26 | 29.73475 | 106.66242 | 1337 ft | 2 kts | 184° |
| 2026-05-06 14:26 | 29.73459 | 106.66239 | 1337 ft | 0 kts | 193° |
| 2026-05-06 14:26 | 29.73454 | 106.66237 | 1338 ft | 0 kts | 192° |